Time;durP1;ratioP1;P1;durP2;ratioP2;P2;SDS_P1;SDS_P2;PMS_P1;PMS_P2;Temp;Humidity;BMP_temperature;BMP_pressure;BME280_temperature;BME280_humidity;BME280_pressure;Samples;Min_cycle;Max_cycle;Signal;HPM_P1;HPM_P2
2022/01/22 00:01:07;;;;;;;18.60;4.78;;;5.70;99.90;;;;;;4147308;28;20034;-61
2022/01/22 00:03:07;;;;;;;12.77;4.53;;;5.80;99.90;;;;;;4149351;28;20060;-61
2022/01/22 00:05:10;;;;;;;13.25;4.80;;;5.80;99.90;;;;;;4148622;28;20070;-62
2022/01/22 00:07:10;;;;;;;10.98;4.10;;;5.70;99.90;;;;;;4147866;28;20499;-61
2022/01/22 00:09:11;;;;;;;8.77;3.90;;;5.70;99.90;;;;;;4144936;28;21170;-61
2022/01/22 00:11:12;;;;;;;12.63;4.55;;;5.80;99.90;;;;;;4145895;28;20061;-65
2022/01/22 00:15:21;;;;;;;13.40;4.40;;;5.70;99.90;;;;;;4147410;28;20091;-62
2022/01/22 00:17:22;;;;;;;11.73;4.70;;;5.80;99.90;;;;;;4146153;28;20421;-62
2022/01/22 00:19:23;;;;;;;13.25;4.97;;;5.80;99.90;;;;;;4145752;28;20054;-62
2022/01/22 00:21:24;;;;;;;15.40;5.03;;;5.80;99.90;;;;;;4148210;28;20061;-62
2022/01/22 00:23:26;;;;;;;9.35;4.10;;;5.80;99.90;;;;;;4146904;28;20041;-61
2022/01/22 00:25:27;;;;;;;19.70;5.18;;;5.80;99.90;;;;;;4146496;28;20378;-61
2022/01/22 00:27:29;;;;;;;16.63;4.82;;;5.70;99.90;;;;;;4146925;28;20115;-61
2022/01/22 00:29:30;;;;;;;11.60;4.67;;;5.70;99.90;;;;;;4147708;28;20034;-61
2022/01/22 00:31:30;;;;;;;13.02;4.15;;;5.80;99.90;;;;;;4147692;28;20392;-61
2022/01/22 00:33:31;;;;;;;14.10;4.88;;;5.70;99.90;;;;;;4146516;28;20038;-61
2022/01/22 00:35:31;;;;;;;11.98;4.88;;;5.70;99.90;;;;;;4141650;28;20127;-61
2022/01/22 00:37:34;;;;;;;22.40;5.03;;;5.70;99.90;;;;;;4147689;28;20042;-61
2022/01/22 00:39:35;;;;;;;15.57;4.80;;;5.70;99.90;;;;;;4146186;28;20401;-61
2022/01/22 00:41:35;;;;;;;13.20;5.03;;;5.70;99.90;;;;;;4148086;28;20473;-61
2022/01/22 00:43:36;;;;;;;11.57;4.85;;;5.70;99.90;;;;;;4148387;28;20050;-61
2022/01/22 00:45:37;;;;;;;9.20;4.38;;;5.70;99.90;;;;;;4148081;28;20465;-61
2022/01/22 00:47:38;;;;;;;9.13;3.83;;;5.70;99.90;;;;;;4148642;28;20068;-61
2022/01/22 00:49:39;;;;;;;20.38;5.97;;;5.70;99.90;;;;;;4148946;28;20038;-61
2022/01/22 00:51:39;;;;;;;11.25;5.05;;;5.70;99.90;;;;;;4147354;28;20507;-61
2022/01/22 00:53:40;;;;;;;14.10;4.95;;;5.70;99.90;;;;;;4148524;28;20104;-61
2022/01/22 00:55:41;;;;;;;19.35;5.38;;;5.70;99.90;;;;;;4147935;28;20096;-61
2022/01/22 00:57:41;;;;;;;15.95;4.57;;;5.70;99.90;;;;;;4148751;28;20092;-61
2022/01/22 00:59:42;;;;;;;13.15;5.22;;;5.70;99.90;;;;;;4148817;28;20038;-61
2022/01/22 01:01:43;;;;;;;9.57;4.55;;;5.60;99.90;;;;;;4147447;28;20037;-63
2022/01/22 01:03:43;;;;;;;13.95;4.30;;;5.60;99.90;;;;;;4148584;28;20057;-64
2022/01/22 01:05:44;;;;;;;16.92;4.95;;;5.60;99.90;;;;;;4144608;28;20038;-63
2022/01/22 01:07:45;;;;;;;10.40;4.15;;;5.60;99.90;;;;;;4148208;28;20381;-63
2022/01/22 01:09:45;;;;;;;9.98;3.88;;;5.60;99.90;;;;;;4147376;28;20040;-63
2022/01/22 01:11:54;;;;;;;15.70;4.63;;;5.70;99.90;;;;;;4147586;28;20049;-63
2022/01/22 01:13:58;;;;;;;17.85;5.18;;;5.60;99.90;;;;;;4147923;28;20034;-62
2022/01/22 01:32:24;;;;;;;13.13;5.40;;;5.60;99.90;;;;;;4164153;28;20042;-61
2022/01/22 01:34:25;;;;;;;13.10;5.10;;;5.60;99.90;;;;;;4164424;28;20064;-62
2022/01/22 01:36:25;;;;;;;12.77;5.15;;;5.70;99.90;;;;;;4160334;28;20041;-61
2022/01/22 01:38:26;;;;;;;14.15;4.82;;;5.60;99.90;;;;;;4162448;28;20037;-61
2022/01/22 01:40:29;;;;;;;10.10;4.90;;;5.60;99.90;;;;;;4161285;28;20091;-61
2022/01/22 01:42:42;;;;;;;22.30;4.97;;;5.70;99.90;;;;;;4159805;28;20054;-61
2022/01/22 01:44:44;;;;;;;13.85;4.88;;;5.60;99.90;;;;;;4164287;28;20412;-61
2022/01/22 01:46:50;;;;;;;10.68;4.82;;;5.70;99.90;;;;;;4163063;28;20049;-62
2022/01/22 01:48:50;;;;;;;16.00;5.70;;;5.70;99.90;;;;;;4161622;28;20049;-61
2022/01/22 01:50:51;;;;;;;12.23;4.57;;;5.70;99.90;;;;;;4162465;28;20053;-62
2022/01/22 01:55:15;;;;;;;16.17;5.45;;;5.70;99.90;;;;;;4160303;28;20045;-62
2022/01/22 01:57:38;;;;;;;14.25;4.90;;;5.70;99.90;;;;;;4160729;28;20041;-62
2022/01/22 01:59:39;;;;;;;11.65;4.90;;;5.70;99.90;;;;;;4158197;28;20037;-61
2022/01/22 02:01:40;;;;;;;11.70;4.80;;;5.70;99.90;;;;;;4161267;28;20044;-61
2022/01/22 02:03:41;;;;;;;12.18;4.93;;;5.70;99.90;;;;;;4161055;28;20120;-61
2022/01/22 02:05:41;;;;;;;14.98;4.75;;;5.80;99.90;;;;;;4158327;28;20079;-61
2022/01/22 02:07:44;;;;;;;11.55;5.03;;;5.70;99.90;;;;;;4163251;28;20045;-61
2022/01/22 02:09:45;;;;;;;;;;;5.70;99.90;;;;;;4162256;28;20037;-62
2022/01/22 02:11:46;;;;;;;11.18;4.72;;;5.70;99.90;;;;;;4161249;28;19961;-62
2022/01/22 02:14:01;;;;;;;8.10;4.80;;;5.70;99.90;;;;;;4161877;28;20033;-62
2022/01/22 02:23:32;;;;;;;11.63;5.18;;;5.70;99.90;;;;;;4160244;28;20045;-62
2022/01/22 02:25:55;;;;;;;16.55;6.25;;;5.70;99.90;;;;;;4134718;28;20033;-62
2022/01/22 02:27:56;;;;;;;10.65;4.82;;;5.70;99.90;;;;;;4145750;28;20370;-62
2022/01/22 02:29:57;;;;;;;15.02;6.30;;;5.80;99.90;;;;;;4145363;28;20128;-62
2022/01/22 02:32:26;;;;;;;17.42;5.32;;;5.80;99.90;;;;;;4146485;28;20132;-61
2022/01/22 02:34:44;;;;;;;11.90;6.10;;;5.80;99.90;;;;;;4146103;28;20042;-62
2022/01/22 02:37:02;;;;;;;13.45;6.15;;;5.80;99.90;;;;;;4146272;28;20034;-61
2022/01/22 02:39:18;;;;;;;13.60;5.47;;;5.70;99.90;;;;;;4146523;28;20375;-61
2022/01/22 02:41:22;;;;;;;14.00;5.95;;;5.70;99.90;;;;;;4141132;28;20061;-62
2022/01/22 02:43:24;;;;;;;15.30;5.80;;;5.70;99.90;;;;;;4146850;28;20061;-62
2022/01/22 02:45:24;;;;;;;19.05;6.60;;;5.70;99.90;;;;;;4146043;28;20038;-61
2022/01/22 02:47:25;;;;;;;10.05;5.65;;;5.70;99.90;;;;;;4144954;28;20087;-62
2022/01/22 02:49:26;;;;;;;18.58;7.15;;;5.70;99.90;;;;;;4145723;28;20508;-62
2022/01/22 02:51:27;;;;;;;17.95;6.70;;;5.70;99.90;;;;;;4142738;28;20041;-61
2022/01/22 02:53:28;;;;;;;16.27;6.05;;;5.70;99.90;;;;;;4143062;28;20041;-62
2022/01/22 02:55:29;;;;;;;11.38;6.50;;;5.70;99.90;;;;;;4144509;28;20038;-62
2022/01/22 02:57:31;;;;;;;14.35;6.63;;;5.70;99.90;;;;;;4144900;28;20041;-61
2022/01/22 02:59:32;;;;;;;20.20;7.97;;;5.70;99.90;;;;;;4143256;28;20513;-61
2022/01/22 03:01:33;;;;;;;10.85;6.45;;;5.70;99.90;;;;;;4143884;28;20130;-61
2022/01/22 03:03:33;;;;;;;13.57;7.38;;;5.80;99.90;;;;;;4144723;28;20045;-61
2022/01/22 03:05:34;;;;;;;13.85;7.70;;;5.70;99.90;;;;;;4144763;28;20049;-61
2022/01/22 03:07:38;;;;;;;17.25;6.70;;;5.80;99.90;;;;;;4143600;28;20045;-61
2022/01/22 03:09:45;;;;;;;16.92;8.02;;;5.80;99.90;;;;;;4144200;28;20477;-61
2022/01/22 03:12:14;;;;;;;18.35;7.95;;;5.80;99.90;;;;;;4144882;28;20069;-62
2022/01/22 03:20:47;;;;;;;10.38;6.85;;;5.80;99.90;;;;;;4144583;28;20034;-61
2022/01/22 03:27:41;;;;;;;14.52;6.97;;;5.80;99.90;;;;;;4144510;28;20042;-61
2022/01/22 03:29:38;;;;;;;15.35;7.80;;;5.80;99.90;;;;;;4141569;28;20049;-61
2022/01/22 03:31:41;;;;;;;13.52;7.53;;;5.80;99.90;;;;;;4144107;28;20074;-61
2022/01/22 03:33:42;;;;;;;21.67;8.32;;;5.80;99.90;;;;;;4149418;28;20034;-61
2022/01/22 03:35:49;;;;;;;15.50;7.82;;;5.80;99.90;;;;;;4148033;28;20451;-61
2022/01/22 03:37:54;;;;;;;12.20;7.43;;;5.80;99.90;;;;;;4147421;28;20164;-62
2022/01/22 03:39:55;;;;;;;13.88;7.72;;;5.80;99.90;;;;;;4149418;28;20033;-61
2022/01/22 03:41:56;;;;;;;15.85;7.78;;;5.80;99.90;;;;;;4149003;28;20477;-61
2022/01/22 03:43:57;;;;;;;17.55;8.10;;;5.80;99.90;;;;;;4148117;28;20057;-61
2022/01/22 03:45:57;;;;;;;14.90;8.30;;;5.80;99.90;;;;;;4146429;28;20496;-62
2022/01/22 03:47:58;;;;;;;11.38;7.53;;;5.80;99.90;;;;;;4148236;28;20461;-61
2022/01/22 03:49:59;;;;;;;16.77;7.97;;;5.80;99.90;;;;;;4149088;28;20137;-61
2022/01/22 03:51:59;;;;;;;16.52;9.63;;;5.80;99.90;;;;;;4145359;28;20066;-61
2022/01/22 03:54:00;;;;;;;19.30;9.30;;;5.80;99.90;;;;;;4147114;28;20038;-61
2022/01/22 03:56:04;;;;;;;16.05;8.32;;;5.80;99.90;;;;;;4146996;28;20496;-61
2022/01/22 03:58:05;;;;;;;14.18;8.23;;;5.90;99.90;;;;;;4149372;28;20051;-61
2022/01/22 04:00:07;;;;;;;12.52;7.78;;;5.90;99.90;;;;;;4147758;28;20651;-63
2022/01/22 04:02:47;;;;;;;19.95;10.18;;;5.90;99.90;;;;;;4146130;28;20536;-61
2022/01/22 04:04:41;;;;;;;17.70;8.77;;;5.90;99.90;;;;;;4148150;28;20033;-61
2022/01/22 04:09:06;;;;;;;21.58;9.82;;;6.00;99.90;;;;;;4149032;28;20042;-62
2022/01/22 04:11:12;;;;;;;23.27;11.40;;;5.90;99.90;;;;;;4146327;28;20081;-62
2022/01/22 04:13:15;;;;;;;21.75;10.07;;;5.90;99.90;;;;;;4147753;28;20030;-61
2022/01/22 04:15:19;;;;;;;22.67;10.88;;;5.90;99.90;;;;;;4142520;28;20080;-63
2022/01/22 04:24:49;;;;;;;29.77;10.60;;;5.90;99.90;;;;;;4145207;28;20042;-61
2022/01/22 04:28:53;;;;;;;22.50;11.50;;;5.90;99.90;;;;;;4145743;28;20359;-62
2022/01/22 04:30:54;;;;;;;19.58;10.90;;;5.90;99.90;;;;;;4145483;28;20042;-61
2022/01/22 04:32:55;;;;;;;26.67;11.77;;;5.90;99.90;;;;;;4149092;28;20112;-61
2022/01/22 04:34:57;;;;;;;25.60;11.70;;;5.90;99.90;;;;;;4148868;28;20038;-61
2022/01/22 04:36:57;;;;;;;25.13;12.50;;;5.90;99.90;;;;;;4148361;28;20034;-61
2022/01/22 04:38:58;;;;;;;21.10;10.27;;;6.00;99.90;;;;;;4148643;28;20496;-62
2022/01/22 04:40:59;;;;;;;20.52;11.52;;;6.00;99.90;;;;;;4147802;28;20477;-61
2022/01/22 04:43:02;;;;;;;18.33;10.80;;;6.00;99.90;;;;;;4148442;28;20531;-62
2022/01/22 04:45:18;;;;;;;18.60;10.52;;;6.00;99.90;;;;;;4148716;28;20058;-64
2022/01/22 04:48:13;;;;;;;25.67;12.25;;;6.00;99.90;;;;;;4148330;28;20030;-62
2022/01/22 04:56:38;;;;;;;23.73;11.43;;;6.00;99.90;;;;;;4147571;28;20046;-61
2022/01/22 04:58:39;;;;;;;26.85;13.02;;;6.00;99.90;;;;;;4148730;28;20127;-61
2022/01/22 05:00:42;;;;;;;28.33;12.93;;;5.90;99.90;;;;;;4147974;28;20108;-61
2022/01/22 05:02:42;;;;;;;21.10;12.45;;;5.90;99.90;;;;;;4147067;28;20397;-61
2022/01/22 05:04:43;;;;;;;19.08;11.93;;;5.90;99.90;;;;;;4148373;28;20034;-61
2022/01/22 05:06:44;;;;;;;24.70;12.82;;;5.90;99.90;;;;;;4147505;28;20057;-61
2022/01/22 05:08:44;;;;;;;24.73;12.57;;;5.90;99.90;;;;;;4148712;28;20034;-61
2022/01/22 05:10:45;;;;;;;23.88;11.80;;;5.90;99.90;;;;;;4147475;28;20378;-61
2022/01/22 05:12:46;;;;;;;22.10;11.82;;;5.90;99.90;;;;;;4146345;28;20034;-61
2022/01/22 05:14:46;;;;;;;25.00;13.35;;;6.00;99.90;;;;;;4143457;28;20111;-64
2022/01/22 05:16:47;;;;;;;24.95;12.20;;;6.00;99.90;;;;;;4146056;28;20173;-62
2022/01/22 05:18:57;;;;;;;25.90;12.65;;;5.90;99.90;;;;;;4143774;28;20061;-62
2022/01/22 05:21:08;;;;;;;30.30;12.60;;;6.00;99.90;;;;;;4145646;28;20508;-61
2022/01/22 05:23:15;;;;;;;18.30;10.93;;;6.00;99.90;;;;;;4146618;28;20042;-61
2022/01/22 05:25:21;;;;;;;18.27;11.40;;;6.00;99.90;;;;;;4143482;28;20416;-62
2022/01/22 05:38:38;;;;;;;22.30;12.32;;;6.00;99.90;;;;;;4163762;28;20132;-62
2022/01/22 05:40:38;;;;;;;24.30;12.55;;;6.10;99.90;;;;;;4162431;28;20038;-61
2022/01/22 05:42:39;;;;;;;28.85;12.05;;;6.00;99.90;;;;;;4163130;28;20103;-62
2022/01/22 05:44:41;;;;;;;27.58;12.77;;;6.10;99.90;;;;;;4151505;28;20061;-61
2022/01/22 05:46:41;;;;;;;20.48;12.27;;;6.00;99.90;;;;;;4158414;28;20064;-62
2022/01/22 05:48:42;;;;;;;19.52;11.00;;;6.00;99.90;;;;;;4164118;28;20042;-63
2022/01/22 05:50:53;;;;;;;19.48;11.27;;;6.10;99.90;;;;;;4163734;28;20041;-62
2022/01/22 05:52:58;;;;;;;20.88;11.13;;;6.10;99.90;;;;;;4163832;28;20449;-62
2022/01/22 06:01:38;;;;;;;18.90;9.48;;;6.10;99.90;;;;;;4158933;28;20175;-61
2022/01/22 06:03:39;;;;;;;19.25;10.88;;;6.10;99.90;;;;;;4163776;28;20034;-61
2022/01/22 06:05:40;;;;;;;17.33;10.27;;;6.10;99.90;;;;;;4161975;28;20045;-61
2022/01/22 06:07:40;;;;;;;20.92;11.63;;;6.10;99.90;;;;;;4163658;28;20467;-61
2022/01/22 06:10:03;;;;;;;16.05;10.75;;;6.10;99.90;;;;;;4163669;28;20036;-61
2022/01/22 06:12:16;;;;;;;16.38;11.13;;;6.10;99.90;;;;;;4159678;28;20462;-62
2022/01/22 06:14:16;;;;;;;20.98;10.75;;;6.10;99.90;;;;;;4163806;28;20034;-62
2022/01/22 06:16:19;;;;;;;14.77;9.63;;;6.10;99.90;;;;;;4145830;28;20465;-65
2022/01/22 06:18:20;;;;;;;20.42;12.05;;;6.10;99.90;;;;;;4159921;28;20029;-63
2022/01/22 06:20:20;;;;;;;16.95;10.48;;;6.20;99.90;;;;;;4162818;28;20086;-63
2022/01/22 06:22:21;;;;;;;15.00;11.05;;;6.20;99.90;;;;;;4158033;28;20042;-61
2022/01/22 06:24:23;;;;;;;21.02;11.48;;;6.20;99.90;;;;;;4158444;28;20041;-61
2022/01/22 06:26:24;;;;;;;17.35;11.88;;;6.20;99.90;;;;;;4146408;28;20034;-62
2022/01/22 06:28:24;;;;;;;19.15;10.63;;;6.20;99.90;;;;;;4147771;28;20108;-61
2022/01/22 06:30:26;;;;;;;14.40;10.30;;;6.20;99.90;;;;;;4146035;28;20030;-61
2022/01/22 06:32:26;;;;;;;21.48;12.10;;;6.20;99.90;;;;;;4160276;28;20389;-61
2022/01/22 06:34:27;;;;;;;21.02;11.93;;;6.20;99.90;;;;;;4162699;28;20034;-61
2022/01/22 06:36:28;;;;;;;19.02;12.07;;;6.20;99.90;;;;;;4159063;28;20044;-61
2022/01/22 06:38:29;;;;;;;24.90;12.68;;;6.20;99.90;;;;;;4149978;28;20103;-61
2022/01/22 06:42:31;;;;;;;22.45;11.55;;;6.20;99.90;;;;;;4161192;28;20082;-61
2022/01/22 06:44:34;;;;;;;16.42;11.07;;;6.20;99.90;;;;;;4162788;28;20041;-61
2022/01/22 06:46:35;;;;;;;17.63;10.55;;;6.20;99.90;;;;;;4151805;28;20041;-61
2022/01/22 06:48:36;;;;;;;15.85;10.57;;;6.30;99.90;;;;;;4149022;28;20030;-61
2022/01/22 06:50:36;;;;;;;18.33;11.35;;;6.30;99.90;;;;;;4162299;28;20045;-61
2022/01/22 06:52:38;;;;;;;18.90;11.75;;;6.30;99.90;;;;;;4162876;28;25424;-61
2022/01/22 06:54:41;;;;;;;20.10;11.23;;;6.30;99.90;;;;;;4162676;28;20048;-61
2022/01/22 06:56:42;;;;;;;;;;;6.30;99.90;;;;;;4158662;28;20045;-61
2022/01/22 06:58:42;;;;;;;19.40;11.60;;;6.40;99.90;;;;;;4162310;28;19996;-61
2022/01/22 07:00:43;;;;;;;15.77;11.13;;;6.40;99.90;;;;;;4162292;28;20045;-61
2022/01/22 07:02:43;;;;;;;15.25;10.73;;;6.40;99.90;;;;;;4162907;28;20041;-61
2022/01/22 07:04:44;;;;;;;18.98;12.07;;;6.40;99.90;;;;;;4160099;28;20087;-60
2022/01/22 07:06:45;;;;;;;19.05;11.32;;;6.40;99.90;;;;;;4161409;28;20057;-61
2022/01/22 07:08:45;;;;;;;16.83;11.77;;;6.40;99.90;;;;;;4161700;28;20507;-61
2022/01/22 07:10:46;;;;;;;17.88;11.65;;;6.40;99.90;;;;;;4159392;28;20054;-61
2022/01/22 07:12:47;;;;;;;19.05;11.43;;;6.40;99.90;;;;;;4161058;28;20036;-61
2022/01/22 07:14:49;;;;;;;19.05;12.10;;;6.40;99.90;;;;;;4162799;28;20038;-61
2022/01/22 07:16:49;;;;;;;17.35;12.27;;;6.40;99.90;;;;;;4156213;28;20072;-62
2022/01/22 07:18:54;;;;;;;21.90;12.48;;;6.40;99.90;;;;;;4161636;28;20061;-62
2022/01/22 07:20:55;;;;;;;18.30;11.63;;;6.40;99.90;;;;;;4159874;28;20043;-61
2022/01/22 07:23:13;;;;;;;16.17;10.95;;;6.50;99.90;;;;;;4149455;28;20476;-61
2022/01/22 07:25:14;;;;;;;25.92;13.75;;;6.40;99.90;;;;;;4158830;28;20125;-61
2022/01/22 07:27:15;;;;;;;19.48;13.55;;;6.40;99.90;;;;;;4160908;28;20042;-61
2022/01/22 07:29:16;;;;;;;22.27;12.98;;;6.40;99.90;;;;;;4159687;28;20054;-61
2022/01/22 07:31:23;;;;;;;19.92;12.70;;;6.40;99.90;;;;;;4157674;28;20056;-61
2022/01/22 07:33:23;;;;;;;18.60;12.05;;;6.40;99.90;;;;;;4139826;28;20084;-61
2022/01/22 07:35:24;;;;;;;21.15;13.00;;;6.40;99.90;;;;;;4141474;28;20436;-61
2022/01/22 07:37:25;;;;;;;19.45;12.90;;;6.40;99.90;;;;;;4142814;28;20042;-61
2022/01/22 07:39:25;;;;;;;19.63;13.10;;;6.50;99.90;;;;;;4142322;28;20038;-61
2022/01/22 07:41:26;;;;;;;18.88;12.88;;;6.50;99.90;;;;;;4141453;28;20049;-62
2022/01/22 07:43:27;;;;;;;21.30;13.75;;;6.50;99.90;;;;;;4137319;28;20064;-61
2022/01/22 07:45:27;;;;;;;21.40;13.23;;;6.40;99.90;;;;;;4140530;28;20136;-60
2022/01/22 07:47:28;;;;;;;25.38;14.70;;;6.40;99.90;;;;;;4142557;28;20037;-61
2022/01/22 07:49:29;;;;;;;19.52;14.02;;;6.50;99.90;;;;;;4140710;28;20052;-61
2022/01/22 07:51:29;;;;;;;20.05;12.95;;;6.40;99.90;;;;;;4138310;28;20069;-61
2022/01/22 07:53:30;;;;;;;22.13;13.45;;;6.40;99.90;;;;;;4142719;28;20100;-61
2022/01/22 07:55:31;;;;;;;18.67;13.05;;;6.40;99.90;;;;;;4142797;28;20042;-61
2022/01/22 07:57:32;;;;;;;21.67;13.50;;;6.50;99.90;;;;;;4143262;28;20061;-61
2022/01/22 07:59:33;;;;;;;18.77;13.82;;;6.50;99.90;;;;;;4143166;28;20409;-62
2022/01/22 08:01:33;;;;;;;25.58;15.68;;;6.50;99.90;;;;;;4142654;28;20469;-61
2022/01/22 08:03:34;;;;;;;22.35;14.00;;;6.40;99.90;;;;;;4142817;28;20158;-61
2022/01/22 08:05:36;;;;;;;23.15;15.45;;;6.50;99.90;;;;;;4142249;28;20050;-61
2022/01/22 08:07:38;;;;;;;23.10;14.25;;;6.40;99.90;;;;;;4143696;28;20062;-61
2022/01/22 08:09:39;;;;;;;;;;;6.40;99.90;;;;;;4143786;28;20069;-61
2022/01/22 08:11:40;;;;;;;22.38;13.93;;;6.50;99.90;;;;;;4144433;28;19925;-61
2022/01/22 08:13:40;;;;;;;21.92;14.50;;;6.50;99.90;;;;;;4143599;28;20046;-62
2022/01/22 08:15:41;;;;;;;22.65;13.80;;;6.50;99.90;;;;;;4142912;28;20034;-61
2022/01/22 08:17:41;;;;;;;20.58;14.52;;;6.50;99.90;;;;;;4143841;28;20038;-61
2022/01/22 08:19:42;;;;;;;23.70;15.63;;;6.50;99.90;;;;;;4161716;28;20072;-61
2022/01/22 08:21:44;;;;;;;26.33;15.63;;;6.50;99.90;;;;;;4159597;28;20578;-61
2022/01/22 08:23:45;;;;;;;23.23;15.57;;;6.50;99.90;;;;;;4161807;28;20064;-61
2022/01/22 08:25:47;;;;;;;22.30;15.07;;;6.50;99.90;;;;;;4159995;28;20041;-61
2022/01/22 08:30:09;;;;;;;23.48;14.57;;;6.60;99.90;;;;;;4144623;28;20060;-63
2022/01/22 08:32:34;;;;;;;28.77;16.60;;;6.60;99.90;;;;;;4145267;28;20160;-62
2022/01/22 08:36:54;;;;;;;28.67;18.27;;;6.60;99.90;;;;;;4144269;28;20045;-62
2022/01/22 08:38:54;;;;;;;24.52;17.00;;;6.60;99.90;;;;;;4145608;28;20064;-62
2022/01/22 08:40:55;;;;;;;26.50;17.40;;;6.60;99.90;;;;;;4144241;28;20037;-62
2022/01/22 08:42:56;;;;;;;30.05;18.35;;;6.60;99.90;;;;;;4154978;28;20041;-62
2022/01/22 08:44:57;;;;;;;24.13;16.63;;;6.60;99.90;;;;;;4160225;28;20449;-61
2022/01/22 08:46:57;;;;;;;29.05;18.10;;;6.60;99.90;;;;;;4160617;28;20037;-61
2022/01/22 08:48:58;;;;;;;26.25;18.20;;;6.60;99.90;;;;;;4161524;28;20041;-61
2022/01/22 08:50:59;;;;;;;28.42;18.15;;;6.60;99.90;;;;;;4158963;28;20100;-62
2022/01/22 08:53:00;;;;;;;33.00;21.25;;;6.60;99.90;;;;;;4160715;28;20049;-60
2022/01/22 08:55:05;;;;;;;29.15;19.08;;;6.60;99.90;;;;;;4161679;28;20050;-62
2022/01/22 08:57:06;;;;;;;32.80;20.13;;;6.60;99.90;;;;;;4159909;28;20504;-62
2022/01/22 08:59:08;;;;;;;29.00;19.27;;;6.60;99.90;;;;;;4161066;28;20128;-61
2022/01/22 09:01:10;;;;;;;34.95;21.27;;;6.60;99.90;;;;;;4159215;28;20453;-61
2022/01/22 09:03:13;;;;;;;37.42;22.15;;;6.60;99.90;;;;;;4163516;28;20038;-61
2022/01/22 09:05:16;;;;;;;31.67;18.98;;;6.60;99.90;;;;;;4162091;28;20037;-62
2022/01/22 09:07:17;;;;;;;33.08;18.65;;;6.60;99.90;;;;;;4163217;28;20441;-61
2022/01/22 09:09:18;;;;;;;31.33;19.10;;;6.60;99.90;;;;;;4162685;28;20128;-61
2022/01/22 09:11:19;;;;;;;26.73;17.88;;;6.60;99.90;;;;;;4163740;28;20045;-61
2022/01/22 09:13:21;;;;;;;24.15;17.30;;;6.60;99.90;;;;;;4163226;28;20044;-62
2022/01/22 09:15:22;;;;;;;33.50;21.00;;;6.60;99.90;;;;;;4162082;28;20488;-63
2022/01/22 09:17:23;;;;;;;33.90;21.20;;;6.60;99.90;;;;;;4156434;28;20044;-62
2022/01/22 09:19:32;;;;;;;26.88;18.80;;;6.60;99.90;;;;;;4160799;28;20048;-62
2022/01/22 09:21:34;;;;;;;27.52;19.17;;;6.70;99.90;;;;;;4163049;28;20396;-62
2022/01/22 09:23:35;;;;;;;26.17;18.50;;;6.70;99.90;;;;;;4163035;28;20068;-61
2022/01/22 09:25:36;;;;;;;26.15;18.27;;;6.60;99.90;;;;;;4162805;28;20033;-62
2022/01/22 09:27:36;;;;;;;28.08;17.70;;;6.70;99.90;;;;;;4164611;28;20091;-61
2022/01/22 09:29:38;;;;;;;26.65;17.60;;;6.70;99.90;;;;;;4162193;28;20502;-62
2022/01/22 09:31:38;;;;;;;29.48;18.52;;;6.70;99.90;;;;;;4161081;28;20037;-62
2022/01/22 09:33:40;;;;;;;29.48;18.85;;;6.70;99.90;;;;;;4163597;28;20146;-62
2022/01/22 09:35:41;;;;;;;26.50;18.23;;;6.70;99.90;;;;;;4161055;28;20045;-62
2022/01/22 09:37:42;;;;;;;28.40;17.98;;;6.80;99.90;;;;;;4161790;28;20037;-61
2022/01/22 09:39:43;;;;;;;25.40;17.00;;;6.80;99.90;;;;;;4161967;28;20034;-61
2022/01/22 09:41:45;;;;;;;28.05;17.98;;;6.80;99.90;;;;;;4163253;28;20042;-61
2022/01/22 09:43:45;;;;;;;30.87;17.50;;;6.80;99.90;;;;;;4160762;28;20049;-61
2022/01/22 09:45:49;;;;;;;24.20;17.05;;;6.80;99.90;;;;;;4162781;28;20631;-61
2022/01/22 09:47:50;;;;;;;24.15;16.83;;;6.80;99.90;;;;;;4163651;28;20038;-61
2022/01/22 09:49:52;;;;;;;27.17;17.00;;;6.90;99.90;;;;;;4151083;28;20488;-62
2022/01/22 09:51:52;;;;;;;23.35;15.77;;;6.90;99.90;;;;;;4144255;28;20085;-62
2022/01/22 09:53:53;;;;;;;26.67;16.20;;;6.90;99.90;;;;;;4147023;28;20045;-60
2022/01/22 09:55:54;;;;;;;26.42;18.02;;;6.90;99.90;;;;;;4145110;28;20037;-62
2022/01/22 09:57:55;;;;;;;23.27;15.57;;;6.90;99.90;;;;;;4146991;28;20038;-61
2022/01/22 09:59:56;;;;;;;26.60;16.15;;;7.00;99.90;;;;;;4145315;28;20494;-62
2022/01/22 10:02:17;;;;;;;21.25;13.80;;;7.00;99.90;;;;;;4146491;28;20062;-61
2022/01/22 10:04:35;;;;;;;22.08;15.10;;;7.00;99.90;;;;;;4144210;28;20084;-61
2022/01/22 10:06:49;;;;;;;23.45;14.70;;;7.10;99.90;;;;;;4159057;28;20041;-61
2022/01/22 10:08:54;;;;;;;18.77;12.50;;;7.10;99.90;;;;;;4163113;28;20443;-62
2022/01/22 10:10:58;;;;;;;21.85;12.40;;;7.10;99.90;;;;;;4144579;28;20050;-61
2022/01/22 10:12:59;;;;;;;17.10;11.10;;;7.10;99.90;;;;;;4146939;28;20058;-61
2022/01/22 10:15:13;;;;;;;20.73;11.38;;;7.10;99.90;;;;;;4143729;28;20486;-61
2022/01/22 10:17:14;;;;;;;17.38;11.20;;;7.10;99.90;;;;;;4151826;28;20046;-62
2022/01/22 10:19:21;;;;;;;22.05;11.93;;;7.20;99.90;;;;;;4161487;28;20059;-61
2022/01/22 10:21:26;;;;;;;19.50;10.23;;;7.20;99.90;;;;;;4159163;28;20045;-62
2022/01/22 10:23:27;;;;;;;19.13;11.40;;;7.20;99.90;;;;;;4157888;28;20045;-62
2022/01/22 10:25:33;;;;;;;17.25;11.30;;;7.30;99.90;;;;;;4162621;28;20037;-62
2022/01/22 10:27:36;;;;;;;18.15;11.07;;;7.30;99.90;;;;;;4160458;28;20099;-62
2022/01/22 10:29:47;;;;;;;18.52;11.15;;;7.30;99.90;;;;;;4163370;28;20361;-63
2022/01/22 10:31:58;;;;;;;18.05;10.80;;;7.30;99.90;;;;;;4161721;28;20042;-62
2022/01/22 10:34:10;;;;;;;15.43;9.50;;;7.30;99.90;;;;;;4153299;28;20038;-63
2022/01/22 10:36:17;;;;;;;17.30;10.52;;;7.40;99.90;;;;;;4160670;28;20073;-61
2022/01/22 10:38:19;;;;;;;19.70;12.50;;;7.40;99.90;;;;;;4158311;28;20405;-62
2022/01/22 10:40:27;;;;;;;21.35;12.50;;;7.40;99.90;;;;;;4160324;28;20038;-62
2022/01/22 10:42:29;;;;;;;21.45;12.75;;;7.30;99.90;;;;;;4160937;28;20164;-61
2022/01/22 10:44:45;;;;;;;25.40;13.65;;;7.40;99.90;;;;;;4163326;28;20049;-61
2022/01/22 10:46:50;;;;;;;27.88;13.65;;;7.40;99.90;;;;;;4161406;28;20045;-61
2022/01/22 10:49:00;;;;;;;25.50;13.88;;;7.30;99.90;;;;;;4160668;28;20447;-61
2022/01/22 10:51:15;;;;;;;32.47;14.98;;;7.30;99.90;;;;;;4160060;28;20033;-62
2022/01/22 10:53:16;;;;;;;20.58;13.35;;;7.30;99.90;;;;;;4161602;28;20057;-62
2022/01/22 10:55:18;;;;;;;25.23;14.95;;;7.20;99.90;;;;;;4161608;28;20400;-62
2022/01/22 10:57:24;;;;;;;26.42;14.98;;;7.20;99.90;;;;;;4156121;28;20040;-62
2022/01/22 10:59:25;;;;;;;24.20;15.02;;;7.30;99.90;;;;;;4162261;28;20029;-62
2022/01/22 11:01:55;;;;;;;22.77;13.30;;;7.30;99.90;;;;;;4160672;28;20041;-62
2022/01/22 11:04:10;;;;;;;28.90;14.93;;;7.30;99.90;;;;;;4139838;28;20048;-62
2022/01/22 11:06:27;;;;;;;28.15;15.43;;;7.30;99.90;;;;;;4160648;28;20058;-62
2022/01/22 11:08:29;;;;;;;26.35;15.90;;;7.30;99.90;;;;;;4161983;28;20037;-62
2022/01/22 11:10:29;;;;;;;23.17;14.90;;;7.30;99.90;;;;;;4159034;28;20092;-62
2022/01/22 11:12:30;;;;;;;25.25;13.45;;;7.30;99.90;;;;;;4162303;28;20281;-62
2022/01/22 11:14:37;;;;;;;22.38;12.93;;;7.30;99.90;;;;;;4161770;28;20116;-62
2022/01/22 11:16:40;;;;;;;22.15;13.00;;;7.30;99.90;;;;;;4157147;28;20038;-62
2022/01/22 11:18:44;;;;;;;22.77;13.73;;;7.30;99.90;;;;;;4160038;28;20033;-62
2022/01/22 11:20:46;;;;;;;26.02;15.02;;;7.30;99.90;;;;;;4160144;28;20045;-62
2022/01/22 11:22:48;;;;;;;24.00;13.15;;;7.30;99.90;;;;;;4162748;28;20041;-61
2022/01/22 11:24:50;;;;;;;25.13;15.05;;;7.30;99.90;;;;;;4162272;28;20065;-62
2022/01/22 11:26:58;;;;;;;24.63;13.60;;;7.40;99.90;;;;;;4161012;28;20365;-61
2022/01/22 11:29:01;;;;;;;25.25;14.25;;;7.40;99.90;;;;;;4158176;28;20115;-61
2022/01/22 11:31:04;;;;;;;27.13;15.40;;;7.30;99.90;;;;;;4158608;28;20069;-62
2022/01/22 11:33:07;;;;;;;;;;;7.40;99.90;;;;;;4160224;28;20137;-61
2022/01/22 11:35:09;;;;;;;24.15;13.98;;;7.40;99.90;;;;;;4162193;28;20284;-64
2022/01/22 11:37:19;;;;;;;30.00;13.70;;;7.40;99.90;;;;;;4161429;28;20074;-62
2022/01/22 11:39:23;;;;;;;19.33;11.93;;;7.40;99.90;;;;;;4174597;28;20030;-62
2022/01/22 11:41:25;;;;;;;23.25;11.85;;;7.40;99.90;;;;;;4159790;28;20107;-62
2022/01/22 11:43:52;;;;;;;17.87;11.03;;;7.40;99.90;;;;;;4154316;28;20049;-62
2022/01/22 11:45:54;;;;;;;20.15;11.30;;;7.50;99.90;;;;;;4151495;28;20346;-63
2022/01/22 11:48:28;;;;;;;20.00;10.68;;;7.50;99.90;;;;;;4160366;28;20049;-63
2022/01/22 11:50:28;;;;;;;21.10;11.23;;;7.40;99.90;;;;;;4155156;28;20060;-62
2022/01/22 11:52:32;;;;;;;17.45;9.60;;;7.50;99.90;;;;;;4162034;28;20077;-62
2022/01/22 11:55:01;;;;;;;22.80;10.32;;;7.40;99.90;;;;;;4164392;28;20040;-62
2022/01/22 11:57:14;;;;;;;16.50;9.18;;;7.40;99.90;;;;;;4159975;28;20049;-63
2022/01/22 11:59:15;;;;;;;15.52;9.20;;;7.40;99.90;;;;;;4163940;28;20045;-62
2022/01/22 12:01:52;;;;;;;20.38;9.88;;;7.50;99.90;;;;;;4161886;28;20048;-62